Time;durP1;ratioP1;P1;durP2;ratioP2;P2;SDS_P1;SDS_P2;PMS_P1;PMS_P2;Temp;Humidity;BMP_temperature;BMP_pressure;BME280_temperature;BME280_humidity;BME280_pressure;Samples;Min_cycle;Max_cycle;Signal;HPM_P1;HPM_P2
2021/07/04 00:00:22;;;;;;;;;;;;;;;16.81;100.00;95776.22;1049609;28;20277;-77
2021/07/04 00:00:53;;;;;;;;;;;;;;;16.79;100.00;95775.78;1049665;28;19984;-77
2021/07/04 00:01:23;;;;;;;;;;;;;;;16.81;100.00;95784.34;1049766;28;19937;-76
2021/07/04 00:01:53;;;;;;;;;;;;;;;16.80;100.00;95779.25;1049650;28;19905;-76
2021/07/04 00:02:23;;;;;;;;;;;;;;;16.81;100.00;95778.16;1049628;28;19948;-76
2021/07/04 00:02:54;;;;;;;;;;;;;;;16.80;100.00;95774.66;1049020;28;19927;-76
2021/07/04 00:03:24;;;;;;;;;;;;;;;16.79;100.00;95777.69;1049332;28;19916;-76
2021/07/04 00:03:54;;;;;;;;;;;;;;;16.81;100.00;95772.75;1049238;28;19965;-76
2021/07/04 00:04:25;;;;;;;;;;;;;;;16.79;100.00;95770.38;1049299;28;19920;-76
2021/07/04 00:04:55;;;;;;;;;;;;;;;16.80;100.00;95774.66;1049581;28;20316;-76
2021/07/04 00:05:27;;;;;;;;;;;;;;;16.78;100.00;95766.06;1049590;28;19920;-77
2021/07/04 00:05:57;;;;;;;;;;;;;;;16.77;100.00;95767.16;1049609;28;19912;-76
2021/07/04 00:06:28;;;;;;;;;;;;;;;16.78;100.00;95771.44;1049349;28;20401;-76
2021/07/04 00:06:58;;;;;;;;;;;;;;;16.79;100.00;95769.56;1049384;28;19912;-75
2021/07/04 00:07:28;;;;;;;;;;;;;;;16.80;100.00;95769.25;1049314;28;19912;-76
2021/07/04 00:07:59;;;;;;;;;;;;;;;16.80;100.00;95763.84;1049278;28;19935;-76
2021/07/04 00:08:29;;;;;;;;;;;;;;;16.80;100.00;95765.75;1049556;28;19959;-76
2021/07/04 00:08:59;;;;;;;;;;;;;;;16.78;100.00;95768.75;1049588;28;19909;-76
2021/07/04 00:09:29;;;;;;;;;;;;;;;16.77;100.00;95769.88;1049620;28;19916;-76
2021/07/04 00:10:00;;;;;;;;;;;;;;;16.77;100.00;95767.16;1049564;28;20004;-76
2021/07/04 00:10:31;;;;;;;;;;;;;;;16.78;100.00;95768.75;1049668;28;19908;-76
2021/07/04 00:11:03;;;;;;;;;;;;;;;16.78;100.00;95768.75;1049636;28;19913;-76
2021/07/04 00:11:33;;;;;;;;;;;;;;;16.77;100.00;95767.16;1049588;28;19913;-76
2021/07/04 00:12:04;;;;;;;;;;;;;;;16.77;100.00;95769.88;1049643;28;19909;-76
2021/07/04 00:12:34;;;;;;;;;;;;;;;16.78;100.00;95765.25;1049311;28;20255;-76
2021/07/04 00:13:05;;;;;;;;;;;;;;;16.77;100.00;95769.88;1049309;28;19913;-77
2021/07/04 00:13:35;;;;;;;;;;;;;;;16.78;100.00;95771.44;1049345;28;19912;-77
2021/07/04 00:14:05;;;;;;;;;;;;;;;16.76;100.00;95765.59;1049261;28;20007;-76
2021/07/04 00:14:35;;;;;;;;;;;;;;;16.74;100.00;95764.34;1045183;28;20336;-76
2021/07/04 00:15:06;;;;;;;;;;;;;;;16.75;100.00;95760.50;1045179;28;19959;-76
2021/07/04 00:15:40;;;;;;;;;;;;;;;16.75;100.00;95758.59;1045355;28;20420;-76
2021/07/04 00:16:11;;;;;;;;;;;;;;;16.75;100.00;95760.50;1049386;28;19908;-76
2021/07/04 00:16:44;;;;;;;;;;;;;;;16.77;100.00;95763.69;1049630;28;19919;-76
2021/07/04 00:17:14;;;;;;;;;;;;;;;16.73;100.00;95755.41;1049601;28;19966;-77
2021/07/04 00:17:45;;;;;;;;;;;;;;;16.73;100.00;95755.41;1049637;28;19946;-76
2021/07/04 00:18:19;;;;;;;;;;;;;;;16.73;100.00;95755.41;1049569;28;19912;-76
2021/07/04 00:18:49;;;;;;;;;;;;;;;16.74;100.00;95759.72;1049603;28;19920;-76
2021/07/04 00:19:20;;;;;;;;;;;;;;;16.75;100.00;95752.41;1049612;28;19923;-76
2021/07/04 00:19:50;;;;;;;;;;;;;;;16.77;100.00;95760.97;1049447;28;20392;-77
2021/07/04 00:20:21;;;;;;;;;;;;;;;16.75;100.00;95753.22;1049487;28;19921;-76
2021/07/04 00:20:51;;;;;;;;;;;;;;;16.78;100.00;95757.97;1049619;28;19916;-76
2021/07/04 00:21:21;;;;;;;;;;;;;;;16.77;100.00;95753.69;1049556;28;19916;-76
2021/07/04 00:21:51;;;;;;;;;;;;;;;16.78;100.00;95757.16;1049522;28;19915;-76
2021/07/04 00:22:22;;;;;;;;;;;;;;;16.76;100.00;95757.50;1049482;28;20389;-76
2021/07/04 00:22:54;;;;;;;;;;;;;;;16.77;100.00;95752.88;1049540;28;19908;-76
2021/07/04 00:23:25;;;;;;;;;;;;;;;16.76;100.00;95764.78;1049264;28;19940;-76
2021/07/04 00:23:55;;;;;;;;;;;;;;;16.75;100.00;95753.22;1049278;28;19914;-76
2021/07/04 00:24:25;;;;;;;;;;;;;;;16.74;100.00;95759.72;1049222;28;20320;-76
2021/07/04 00:24:56;;;;;;;;;;;;;;;16.75;100.00;95758.59;1049181;28;19914;-76
2021/07/04 00:25:27;;;;;;;;;;;;;;;16.75;100.00;95753.22;1049563;28;19951;-76
2021/07/04 00:25:57;;;;;;;;;;;;;;;16.74;100.00;95757.03;1049537;28;20289;-76
2021/07/04 00:26:27;;;;;;;;;;;;;;;16.74;100.00;95750.84;1049585;28;19920;-76
2021/07/04 00:26:57;;;;;;;;;;;;;;;16.74;100.00;95751.63;1049539;28;19909;-76
2021/07/04 00:27:28;;;;;;;;;;;;;;;16.75;100.00;95749.72;1049557;28;19916;-76
2021/07/04 00:27:58;;;;;;;;;;;;;;;16.75;100.00;95750.50;1049544;28;19915;-76
2021/07/04 00:28:28;;;;;;;;;;;;;;;16.75;100.00;95752.41;1049456;28;20303;-76
2021/07/04 00:28:59;;;;;;;;;;;;;;;16.75;100.00;95750.50;1049605;28;19909;-76
2021/07/04 00:29:29;;;;;;;;;;;;;;;16.75;100.00;95753.22;1049525;28;19917;-76
2021/07/04 00:30:00;;;;;;;;;;;;;;;16.77;100.00;95750.97;1049514;28;19908;-75
2021/07/04 00:30:30;;;;;;;;;;;;;;;16.77;100.00;95753.69;1049576;28;19912;-75
2021/07/04 00:31:00;;;;;;;;;;;;;;;16.79;100.00;95756.09;1049614;28;19908;-76
2021/07/04 00:31:31;;;;;;;;;;;;;;;16.79;100.00;95748.00;1049547;28;19917;-75
2021/07/04 00:32:01;;;;;;;;;;;;;;;16.79;100.00;95751.47;1049567;28;19908;-75
2021/07/04 00:32:31;;;;;;;;;;;;;;;16.78;100.00;95749.88;1049487;28;20365;-75
2021/07/04 00:33:02;;;;;;;;;;;;;;;16.78;100.00;95749.06;1049346;28;19916;-75
2021/07/04 00:33:32;;;;;;;;;;;;;;;16.77;100.00;95744.78;1049128;28;20019;-75
2021/07/04 00:34:02;;;;;;;;;;;;;;;16.77;100.00;95748.28;1049300;28;19904;-75
2021/07/04 00:34:33;;;;;;;;;;;;;;;16.79;100.00;95750.69;1049208;28;19973;-75
2021/07/04 00:35:03;;;;;;;;;;;;;;;16.80;100.00;95754.97;1049042;28;19958;-75
2021/07/04 00:35:34;;;;;;;;;;;;;;;16.80;100.00;95749.56;1049458;28;19920;-75
2021/07/04 00:36:04;;;;;;;;;;;;;;;16.82;100.00;95752.75;1049495;28;19909;-76
2021/07/04 00:36:35;;;;;;;;;;;;;;;16.81;100.00;95751.16;1049486;28;19920;-75
2021/07/04 00:37:05;;;;;;;;;;;;;;;16.81;100.00;95751.94;1049511;28;20389;-76
2021/07/04 00:37:35;;;;;;;;;;;;;;;16.82;100.00;95755.44;1049469;28;19920;-75
2021/07/04 00:38:05;;;;;;;;;;;;;;;16.83;100.00;95754.31;1049505;28;20062;-75
2021/07/04 00:38:36;;;;;;;;;;;;;;;16.81;100.00;95753.84;1049489;28;19919;-75
2021/07/04 00:39:06;;;;;;;;;;;;;;;16.81;100.00;95746.56;1049510;28;19954;-75
2021/07/04 00:39:36;;;;;;;;;;;;;;;16.81;100.00;95751.16;1049484;28;19912;-76
2021/07/04 00:40:07;;;;;;;;;;;;;;;16.81;100.00;95751.16;1049503;28;19912;-75
2021/07/04 00:40:40;;;;;;;;;;;;;;;16.80;100.00;95753.06;1049118;28;19916;-75
2021/07/04 00:41:10;;;;;;;;;;;;;;;16.80;100.00;95749.56;1049161;28;19905;-75
2021/07/04 00:41:40;;;;;;;;;;;;;;;16.80;100.00;95747.66;1044922;28;19915;-74
2021/07/04 00:42:13;;;;;;;;;;;;;;;16.80;100.00;95747.66;1045380;28;19901;-75
2021/07/04 00:42:43;;;;;;;;;;;;;;;16.81;100.00;95746.56;1049219;28;20378;-75
2021/07/04 00:43:13;;;;;;;;;;;;;;;16.80;100.00;95750.38;1049242;28;19908;-75
2021/07/04 00:43:44;;;;;;;;;;;;;;;16.79;100.00;95751.47;1045092;28;19955;-74
2021/07/04 00:44:14;;;;;;;;;;;;;;;16.80;100.00;95744.97;1045024;28;19958;-75
2021/07/04 00:44:44;;;;;;;;;;;;;;;16.81;100.00;95746.56;1045111;28;19904;-75
2021/07/04 00:45:16;;;;;;;;;;;;;;;16.81;100.00;95748.47;1044968;28;20365;-75
2021/07/04 00:45:46;;;;;;;;;;;;;;;16.82;100.00;95747.34;1049410;28;19904;-75
2021/07/04 00:46:16;;;;;;;;;;;;;;;16.82;100.00;95752.75;1049403;28;19908;-75
2021/07/04 00:46:46;;;;;;;;;;;;;;;16.82;100.00;95750.84;1049472;28;20254;-75
2021/07/04 00:47:17;;;;;;;;;;;;;;;16.83;100.00;95748.94;1049453;28;19912;-75
2021/07/04 00:47:47;;;;;;;;;;;;;;;16.83;100.00;95754.31;1049222;28;19940;-75
2021/07/04 00:48:18;;;;;;;;;;;;;;;16.82;100.00;95750.84;1049182;28;19909;-75
2021/07/04 00:48:48;;;;;;;;;;;;;;;16.80;100.00;95749.56;1049153;28;19908;-75
2021/07/04 00:49:18;;;;;;;;;;;;;;;16.79;100.00;95746.09;1049102;28;20392;-75
2021/07/04 00:49:48;;;;;;;;;;;;;;;16.79;100.00;95750.69;1049204;28;19911;-75
2021/07/04 00:50:19;;;;;;;;;;;;;;;16.79;100.00;95748.78;1049153;28;19904;-75
2021/07/04 00:50:50;;;;;;;;;;;;;;;16.79;100.00;95743.38;1049054;28;20350;-75
2021/07/04 00:51:20;;;;;;;;;;;;;;;16.79;100.00;95740.69;1049209;28;20352;-75
2021/07/04 00:51:50;;;;;;;;;;;;;;;16.80;100.00;95746.88;1049132;28;20338;-75
2021/07/04 00:52:20;;;;;;;;;;;;;;;16.79;100.00;95745.28;1049017;28;20652;-75
2021/07/04 00:52:51;;;;;;;;;;;;;;;16.78;100.00;95739.06;1049113;28;19954;-74
2021/07/04 00:53:22;;;;;;;;;;;;;;;16.78;100.00;95744.47;1049407;28;19905;-75
2021/07/04 00:53:52;;;;;;;;;;;;;;;16.79;100.00;95742.59;1049210;28;19909;-75
2021/07/04 00:54:23;;;;;;;;;;;;;;;16.81;100.00;95740.38;1049152;28;20313;-75
2021/07/04 00:54:53;;;;;;;;;;;;;;;16.81;100.00;95743.06;1044956;28;20459;-75
2021/07/04 00:55:23;;;;;;;;;;;;;;;16.81;100.00;95743.06;1045026;28;20369;-75
2021/07/04 00:55:53;;;;;;;;;;;;;;;16.80;100.00;95739.56;1044926;28;19940;-75
2021/07/04 00:56:24;;;;;;;;;;;;;;;16.82;100.00;95741.94;1044949;28;19952;-75
2021/07/04 00:56:54;;;;;;;;;;;;;;;16.81;100.00;95743.84;1049404;28;19958;-75
2021/07/04 00:57:24;;;;;;;;;;;;;;;16.80;100.00;95739.56;1049360;28;20280;-75
2021/07/04 00:57:55;;;;;;;;;;;;;;;16.81;100.00;95740.38;1053202;28;19910;-75
2021/07/04 00:58:25;;;;;;;;;;;;;;;16.81;100.00;95737.66;1053251;28;19900;-75
2021/07/04 00:58:55;;;;;;;;;;;;;;;16.79;100.00;95738.00;1053353;28;19904;-74
2021/07/04 00:59:25;;;;;;;;;;;;;;;16.80;100.00;95736.88;1053346;28;19956;-74
2021/07/04 00:59:56;;;;;;;;;;;;;;;16.77;100.00;95734.78;1049127;28;20323;-75
2021/07/04 01:00:27;;;;;;;;;;;;;;;16.79;100.00;95745.28;1049142;28;19905;-74
2021/07/04 01:00:57;;;;;;;;;;;;;;;16.79;100.00;95734.50;1049168;28;19904;-74
2021/07/04 01:01:27;;;;;;;;;;;;;;;16.79;100.00;95737.19;1049089;28;20345;-74
2021/07/04 01:01:59;;;;;;;;;;;;;;;16.78;100.00;95724.78;1049347;28;19904;-75
2021/07/04 01:02:29;;;;;;;;;;;;;;;16.78;100.00;95732.88;1049399;28;20356;-74
2021/07/04 01:02:59;;;;;;;;;;;;;;;16.78;100.00;95732.88;1049070;28;19913;-75
2021/07/04 01:03:30;;;;;;;;;;;;;;;16.77;100.00;95734.00;1049290;28;19916;-75
2021/07/04 01:04:00;;;;;;;;;;;;;;;16.79;100.00;95737.19;1049297;28;19943;-75
2021/07/04 01:04:30;;;;;;;;;;;;;;;16.79;100.00;95734.50;1049367;28;19920;-74
2021/07/04 01:05:01;;;;;;;;;;;;;;;16.78;100.00;95733.69;1049375;28;19958;-75
2021/07/04 01:05:32;;;;;;;;;;;;;;;16.78;100.00;95736.38;1049404;28;19919;-74
2021/07/04 01:06:02;;;;;;;;;;;;;;;16.79;100.00;95738.00;1049134;28;19916;-75
2021/07/04 01:06:32;;;;;;;;;;;;;;;16.79;100.00;95721.00;1048998;28;20266;-74
2021/07/04 01:07:03;;;;;;;;;;;;;;;16.78;100.00;95724.78;1049886;28;19917;-75
2021/07/04 01:07:33;;;;;;;;;;;;;;;16.78;100.00;95725.59;1046725;28;19908;-74
2021/07/04 01:08:04;;;;;;;;;;;;;;;16.75;100.00;95728.94;1046560;28;19919;-74
2021/07/04 01:08:34;;;;;;;;;;;;;;;16.76;100.00;95733.22;1046949;28;19914;-74
2021/07/04 01:09:04;;;;;;;;;;;;;;;16.75;100.00;95734.31;1051015;28;19969;-75
2021/07/04 01:09:35;;;;;;;;;;;;;;;16.77;100.00;95732.09;1050188;28;19912;-74
2021/07/04 01:10:06;;;;;;;;;;;;;;;16.75;100.00;95728.94;1049098;28;20006;-75
2021/07/04 01:10:36;;;;;;;;;;;;;;;16.77;100.00;95731.31;1049233;28;19979;-74
2021/07/04 01:11:07;;;;;;;;;;;;;;;16.77;100.00;95723.22;1049114;28;19914;-75
2021/07/04 01:11:37;;;;;;;;;;;;;;;16.78;100.00;95733.69;1049079;28;19913;-74
2021/07/04 01:12:07;;;;;;;;;;;;;;;16.77;100.00;95731.31;1044976;28;19912;-74
2021/07/04 01:12:38;;;;;;;;;;;;;;;16.76;100.00;95724.31;1045036;28;19909;-75
2021/07/04 01:13:08;;;;;;;;;;;;;;;16.74;100.00;95724.66;1044886;28;19919;-74
2021/07/04 01:13:38;;;;;;;;;;;;;;;16.73;100.00;95727.63;1045014;28;19999;-74
2021/07/04 01:14:09;;;;;;;;;;;;;;;16.73;100.00;95724.94;1049139;28;19919;-75
2021/07/04 01:14:39;;;;;;;;;;;;;;;16.74;100.00;95723.84;1049069;28;19923;-75
2021/07/04 01:15:10;;;;;;;;;;;;;;;16.72;100.00;95718.75;1049061;28;19966;-74
2021/07/04 01:15:40;;;;;;;;;;;;;;;16.73;100.00;95724.94;1049074;28;20030;-75
2021/07/04 01:16:11;;;;;;;;;;;;;;;16.71;100.00;95719.03;1049081;28;19995;-75
2021/07/04 01:16:41;;;;;;;;;;;;;;;16.69;100.00;95722.06;1049061;28;19912;-74
2021/07/04 01:17:11;;;;;;;;;;;;;;;16.69;100.00;95719.38;1048956;28;19913;-74
2021/07/04 01:17:41;;;;;;;;;;;;;;;16.68;100.00;95716.97;1049086;28;19905;-75
2021/07/04 01:18:12;;;;;;;;;;;;;;;16.69;100.00;95726.69;1048745;28;20341;-74
2021/07/04 01:18:42;;;;;;;;;;;;;;;16.70;100.00;95722.84;1048986;28;19978;-75
2021/07/04 01:19:15;;;;;;;;;;;;;;;16.71;100.00;95719.03;1049078;28;19962;-74
2021/07/04 01:19:46;;;;;;;;;;;;;;;16.71;100.00;95719.88;1049072;28;19912;-74
2021/07/04 01:20:17;;;;;;;;;;;;;;;16.72;100.00;95713.34;1049008;28;20392;-74
2021/07/04 01:20:47;;;;;;;;;;;;;;;16.74;100.00;95713.06;1048968;28;19919;-75
2021/07/04 01:21:17;;;;;;;;;;;;;;;16.73;100.00;95716.84;1044978;28;19912;-74
2021/07/04 01:21:47;;;;;;;;;;;;;;;16.74;100.00;95711.16;1040850;28;19975;-74
2021/07/04 01:22:18;;;;;;;;;;;;;;;16.74;100.00;95716.56;1044830;28;20417;-74
2021/07/04 01:22:53;;;;;;;;;;;;;;;16.73;100.00;95714.94;1048930;28;19912;-74
2021/07/04 01:23:23;;;;;;;;;;;;;;;16.74;100.00;95715.75;1053833;28;20364;-74
2021/07/04 01:23:53;;;;;;;;;;;;;;;16.74;100.00;95715.75;1057403;28;19904;-74
2021/07/04 01:24:23;;;;;;;;;;;;;;;16.73;100.00;95716.84;1048376;28;19916;-75
2021/07/04 01:24:54;;;;;;;;;;;;;;;16.73;100.00;95722.25;1044957;28;19917;-74
2021/07/04 01:25:24;;;;;;;;;;;;;;;16.71;100.00;95709.06;1040686;28;20310;-74
2021/07/04 01:25:55;;;;;;;;;;;;;;;16.70;100.00;95718.25;1040655;28;19959;-74
2021/07/04 01:26:25;;;;;;;;;;;;;;;16.71;100.00;95721.75;1049055;28;20193;-74
2021/07/04 01:26:55;;;;;;;;;;;;;;;16.70;100.00;95712.06;1048938;28;19919;-74
2021/07/04 01:27:25;;;;;;;;;;;;;;;16.71;100.00;95717.16;1040672;28;19928;-74
2021/07/04 01:27:56;;;;;;;;;;;;;;;16.73;100.00;95708.75;1040515;28;20373;-75
2021/07/04 01:28:26;;;;;;;;;;;;;;;16.73;100.00;95719.53;1040635;28;19952;-74
2021/07/04 01:28:57;;;;;;;;;;;;;;;16.74;100.00;95713.06;1044802;28;19909;-75
2021/07/04 01:29:27;;;;;;;;;;;;;;;16.72;100.00;95713.34;1049042;28;19916;-75
2021/07/04 01:29:57;;;;;;;;;;;;;;;16.71;100.00;95713.66;1049212;28;19908;-75
2021/07/04 01:30:27;;;;;;;;;;;;;;;16.72;100.00;95712.56;1049040;28;19928;-74
2021/07/04 01:30:59;;;;;;;;;;;;;;;16.70;100.00;95718.25;1049004;28;20019;-74
2021/07/04 01:31:29;;;;;;;;;;;;;;;16.72;100.00;95720.66;1049041;28;20369;-74
2021/07/04 01:31:59;;;;;;;;;;;;;;;16.71;100.00;95705.56;1048938;28;19913;-74
2021/07/04 01:32:29;;;;;;;;;;;;;;;16.70;100.00;95710.16;1048985;28;19920;-74
2021/07/04 01:33:00;;;;;;;;;;;;;;;16.70;100.00;95706.66;1049029;28;19958;-75
2021/07/04 01:33:30;;;;;;;;;;;;;;;16.70;100.00;95712.06;1044780;28;19913;-75
2021/07/04 01:34:00;;;;;;;;;;;;;;;16.71;100.00;95708.25;1048825;28;19917;-74
2021/07/04 01:34:31;;;;;;;;;;;;;;;16.72;100.00;95704.47;1048994;28;19916;-74
2021/07/04 01:35:01;;;;;;;;;;;;;;;16.71;100.00;95703.69;1048815;28;19951;-75
2021/07/04 01:35:31;;;;;;;;;;;;;;;16.71;100.00;95708.25;1053151;28;19908;-74
2021/07/04 01:36:01;;;;;;;;;;;;;;;16.72;100.00;95705.25;1048888;28;19921;-75
2021/07/04 01:36:32;;;;;;;;;;;;;;;16.73;100.00;95706.06;1048898;28;19908;-75
2021/07/04 01:37:02;;;;;;;;;;;;;;;16.74;100.00;95707.66;1048954;28;20325;-74
2021/07/04 01:37:32;;;;;;;;;;;;;;;16.75;100.00;95707.34;1048921;28;19947;-75
2021/07/04 01:38:03;;;;;;;;;;;;;;;16.73;100.00;95708.75;1048630;28;19948;-74
2021/07/04 01:38:33;;;;;;;;;;;;;;;16.75;100.00;95706.53;1048898;28;19909;-74
2021/07/04 01:39:04;;;;;;;;;;;;;;;16.74;100.00;95708.47;1048966;28;19917;-75
2021/07/04 01:39:34;;;;;;;;;;;;;;;16.74;100.00;95702.25;1044844;28;20354;-74
2021/07/04 01:40:05;;;;;;;;;;;;;;;16.75;100.00;95709.25;1044805;28;19917;-74
2021/07/04 01:40:35;;;;;;;;;;;;;;;16.76;100.00;95705.44;1049025;28;19912;-75
2021/07/04 01:41:05;;;;;;;;;;;;;;;16.75;100.00;95706.53;1048913;28;19923;-75
2021/07/04 01:41:36;;;;;;;;;;;;;;;16.75;100.00;95707.34;1049307;28;19958;-75
2021/07/04 01:42:06;;;;;;;;;;;;;;;16.73;100.00;95706.84;1049128;28;19934;-74
2021/07/04 01:42:37;;;;;;;;;;;;;;;16.75;100.00;95709.25;1049230;28;19909;-75
2021/07/04 01:43:07;;;;;;;;;;;;;;;16.74;100.00;95705.75;1049151;28;19923;-75
2021/07/04 01:43:38;;;;;;;;;;;;;;;16.72;100.00;95707.97;1049230;28;20293;-75
2021/07/04 01:44:08;;;;;;;;;;;;;;;16.69;100.00;95710.47;1048859;28;19981;-74
2021/07/04 01:44:38;;;;;;;;;;;;;;;16.69;100.00;95702.38;1044711;28;19905;-75
2021/07/04 01:45:09;;;;;;;;;;;;;;;16.70;100.00;95706.66;1044798;28;20311;-75
2021/07/04 01:45:40;;;;;;;;;;;;;;;16.71;100.00;95711.78;1044796;28;19909;-75
2021/07/04 01:46:10;;;;;;;;;;;;;;;16.69;100.00;95707.78;1044923;28;19920;-74
2021/07/04 01:46:40;;;;;;;;;;;;;;;16.69;100.00;95703.19;1048996;28;19911;-74
2021/07/04 01:47:10;;;;;;;;;;;;;;;16.69;100.00;95705.09;1048923;28;19960;-74
2021/07/04 01:47:41;;;;;;;;;;;;;;;16.70;100.00;95703.97;1048957;28;19904;-74
2021/07/04 01:48:13;;;;;;;;;;;;;;;16.70;100.00;95703.97;1048732;28;20382;-75
2021/07/04 01:48:43;;;;;;;;;;;;;;;16.66;100.00;95695.72;1048957;28;20344;-74
2021/07/04 01:49:14;;;;;;;;;;;;;;;16.67;100.00;95701.88;1048818;28;19923;-75
2021/07/04 01:49:44;;;;;;;;;;;;;;;16.68;100.00;95708.88;1048650;28;19941;-75
2021/07/04 01:50:18;;;;;;;;;;;;;;;16.69;100.00;95707.78;1044748;28;19920;-75
2021/07/04 01:50:49;;;;;;;;;;;;;;;16.67;100.00;95707.28;1045312;28;19905;-75
2021/07/04 01:51:20;;;;;;;;;;;;;;;16.67;100.00;95704.59;1048900;28;19940;-74
2021/07/04 01:51:51;;;;;;;;;;;;;;;16.67;100.00;95704.59;1045304;28;19904;-75
2021/07/04 01:52:22;;;;;;;;;;;;;;;16.66;100.00;95706.50;1048927;28;19901;-75
2021/07/04 01:52:52;;;;;;;;;;;;;;;16.63;100.00;95707.94;1048850;28;19900;-75
2021/07/04 01:53:23;;;;;;;;;;;;;;;16.64;100.00;95708.72;1048847;28;19909;-74
2021/07/04 01:53:53;;;;;;;;;;;;;;;16.66;100.00;95711.09;1049262;28;19911;-75
2021/07/04 01:54:23;;;;;;;;;;;;;;;16.63;100.00;95710.63;1049234;28;19901;-75
2021/07/04 01:54:53;;;;;;;;;;;;;;;16.62;100.00;95709.03;1049152;28;19912;-75
2021/07/04 01:55:24;;;;;;;;;;;;;;;16.64;100.00;95697.94;1049238;28;19904;-74
2021/07/04 01:55:54;;;;;;;;;;;;;;;16.65;100.00;95704.91;1052992;28;19904;-75
2021/07/04 01:56:24;;;;;;;;;;;;;;;16.62;100.00;95710.94;1053078;28;20338;-75
2021/07/04 01:56:55;;;;;;;;;;;;;;;16.60;100.00;95700.47;1052998;28;19909;-74
2021/07/04 01:57:26;;;;;;;;;;;;;;;16.62;100.00;95703.63;1044632;28;19908;-74
2021/07/04 01:57:56;;;;;;;;;;;;;;;16.63;100.00;95699.03;1044770;28;20281;-75
2021/07/04 01:58:27;;;;;;;;;;;;;;;16.59;100.00;95706.97;1033884;28;19906;-74
2021/07/04 01:58:57;;;;;;;;;;;;;;;16.60;100.00;95705.84;1032547;28;19917;-74
2021/07/04 01:59:27;;;;;;;;;;;;;;;16.59;100.00;95709.66;1036555;28;19967;-75
2021/07/04 01:59:59;;;;;;;;;;;;;;;16.60;100.00;95710.47;1036638;28;19902;-75
2021/07/04 02:00:30;;;;;;;;;;;;;;;16.60;100.00;95707.75;1040557;28;19951;-75
2021/07/04 02:01:01;;;;;;;;;;;;;;;16.62;100.00;95713.63;1036407;28;19901;-75
2021/07/04 02:01:31;;;;;;;;;;;;;;;16.60;100.00;95708.56;1036495;28;19930;-75
2021/07/04 02:02:01;;;;;;;;;;;;;;;16.58;100.00;95710.78;1036503;28;19921;-74
2021/07/04 02:02:31;;;;;;;;;;;;;;;16.58;100.00;95704.56;1040534;28;19917;-75
2021/07/04 02:03:02;;;;;;;;;;;;;;;16.59;100.00;95709.66;1048823;28;20372;-74
2021/07/04 02:03:33;;;;;;;;;;;;;;;16.59;100.00;95706.97;1044574;28;19913;-74
2021/07/04 02:04:03;;;;;;;;;;;;;;;16.61;100.00;95709.34;1040500;28;19909;-75
2021/07/04 02:04:41;;;;;;;;;;;;;;;16.59;100.00;95704.28;1040652;28;20446;-75
2021/07/04 02:05:11;;;;;;;;;;;;;;;16.57;100.00;95711.88;1040585;28;19982;-74
2021/07/04 02:05:42;;;;;;;;;;;;;;;16.57;100.00;95706.47;1041660;28;19931;-75
2021/07/04 02:06:12;;;;;;;;;;;;;;;16.60;100.00;95707.75;1044831;28;19944;-75
2021/07/04 02:06:42;;;;;;;;;;;;;;;16.59;100.00;95709.66;1045026;28;19916;-75
2021/07/04 02:07:15;;;;;;;;;;;;;;;16.60;100.00;95708.56;1044635;28;19908;-75
2021/07/04 02:07:46;;;;;;;;;;;;;;;16.62;100.00;95710.94;1044824;28;19913;-75
2021/07/04 02:08:16;;;;;;;;;;;;;;;16.63;100.00;95716.03;1048801;28;19912;-75
2021/07/04 02:08:46;;;;;;;;;;;;;;;16.63;100.00;95707.13;1049215;28;19921;-75
2021/07/04 02:09:17;;;;;;;;;;;;;;;16.61;100.00;95710.13;1048832;28;19913;-74
2021/07/04 02:09:48;;;;;;;;;;;;;;;16.61;100.00;95703.94;1048935;28;20381;-75
2021/07/04 02:10:19;;;;;;;;;;;;;;;16.60;100.00;95707.75;1036566;28;19913;-75
2021/07/04 02:10:49;;;;;;;;;;;;;;;16.61;100.00;95704.75;1040949;28;19917;-75
2021/07/04 02:11:20;;;;;;;;;;;;;;;16.62;100.00;95709.03;1048635;28;19977;-74
2021/07/04 02:11:50;;;;;;;;;;;;;;;16.63;100.00;95704.41;1049054;28;19916;-75
2021/07/04 02:12:20;;;;;;;;;;;;;;;16.63;100.00;95710.63;1052928;28;19951;-75
2021/07/04 02:12:51;;;;;;;;;;;;;;;16.64;100.00;95703.34;1053075;28;19923;-75
2021/07/04 02:13:21;;;;;;;;;;;;;;;16.65;100.00;95702.22;1044634;28;19934;-74
2021/07/04 02:13:51;;;;;;;;;;;;;;;16.66;100.00;95703.00;1044642;28;19916;-75
2021/07/04 02:14:22;;;;;;;;;;;;;;;16.64;100.00;95701.44;1048801;28;19987;-74
2021/07/04 02:14:52;;;;;;;;;;;;;;;16.66;100.00;95700.31;1048880;28;20409;-75
2021/07/04 02:15:26;;;;;;;;;;;;;;;16.65;100.00;95699.53;1049053;28;19919;-74
2021/07/04 02:15:56;;;;;;;;;;;;;;;16.66;100.00;95700.31;1049100;28;19916;-75
2021/07/04 02:16:26;;;;;;;;;;;;;;;16.63;100.00;95702.53;1049103;28;19912;-74
2021/07/04 02:16:57;;;;;;;;;;;;;;;16.60;100.00;95697.75;1049115;28;19913;-75
2021/07/04 02:17:29;;;;;;;;;;;;;;;16.59;100.00;95693.47;1044633;28;19913;-74
2021/07/04 02:18:03;;;;;;;;;;;;;;;16.62;100.00;95708.22;1044221;28;19912;-74
2021/07/04 02:18:33;;;;;;;;;;;;;;;16.63;100.00;95712.50;1044142;28;19948;-74
2021/07/04 02:19:04;;;;;;;;;;;;;;;16.63;100.00;95697.16;1045384;28;19927;-75
2021/07/04 02:19:34;;;;;;;;;;;;;;;16.63;100.00;95701.72;1049444;28;20359;-75
2021/07/04 02:20:17;;;;;;;;;;;;;;;16.63;100.00;95707.94;1052987;28;19912;-75
2021/07/04 02:20:47;;;;;;;;;;;;;;;16.64;100.00;95712.22;1048790;28;19971;-75
2021/07/04 02:21:19;;;;;;;;;;;;;;;16.65;100.00;95713.00;1040432;28;19919;-75
2021/07/04 02:21:50;;;;;;;;;;;;;;;16.67;100.00;95707.28;1040505;28;19917;-75
2021/07/04 02:22:20;;;;;;;;;;;;;;;16.64;100.00;95712.22;1040840;28;19909;-75
2021/07/04 02:22:50;;;;;;;;;;;;;;;16.64;100.00;95704.13;1045007;28;19944;-75
2021/07/04 02:23:25;;;;;;;;;;;;;;;16.63;100.00;95699.84;1049000;28;19904;-74
2021/07/04 02:23:55;;;;;;;;;;;;;;;16.63;100.00;95709.81;1049126;28;20238;-74
2021/07/04 02:24:25;;;;;;;;;;;;;;;16.63;100.00;95702.53;1049051;28;19944;-75
2021/07/04 02:24:55;;;;;;;;;;;;;;;16.64;100.00;95704.13;1048767;28;19920;-75
2021/07/04 02:25:26;;;;;;;;;;;;;;;16.64;100.00;95703.34;1044558;28;20374;-75
2021/07/04 02:25:57;;;;;;;;;;;;;;;16.64;100.00;95696.03;1040513;28;19909;-74
2021/07/04 02:26:27;;;;;;;;;;;;;;;16.64;100.00;95708.72;1036454;28;19992;-74
2021/07/04 02:26:57;;;;;;;;;;;;;;;16.64;100.00;95703.34;1036399;28;19956;-75
2021/07/04 02:27:28;;;;;;;;;;;;;;;16.63;100.00;95702.53;1040576;28;19944;-75
2021/07/04 02:27:58;;;;;;;;;;;;;;;16.64;100.00;95700.63;1044677;28;19909;-74
2021/07/04 02:28:29;;;;;;;;;;;;;;;16.64;100.00;95689.84;1048406;28;20289;-75
2021/07/04 02:28:59;;;;;;;;;;;;;;;16.61;100.00;95693.16;1049100;28;20420;-74
2021/07/04 02:29:29;;;;;;;;;;;;;;;16.62;100.00;95694.75;1048969;28;19912;-74
2021/07/04 02:29:59;;;;;;;;;;;;;;;16.61;100.00;95698.56;1049114;28;19916;-74
2021/07/04 02:30:30;;;;;;;;;;;;;;;16.61;100.00;95696.66;1048942;28;20064;-74
2021/07/04 02:31:00;;;;;;;;;;;;;;;16.63;100.00;95702.53;1049131;28;19908;-75
2021/07/04 02:31:31;;;;;;;;;;;;;;;16.64;100.00;95696.03;1048661;28;19912;-75
2021/07/04 02:32:01;;;;;;;;;;;;;;;16.64;100.00;95700.63;1040483;28;20451;-74
2021/07/04 02:32:31;;;;;;;;;;;;;;;16.63;100.00;95689.06;1040450;28;20539;-75
2021/07/04 02:33:03;;;;;;;;;;;;;;;16.63;100.00;95694.44;1040566;28;19913;-75
2021/07/04 02:33:33;;;;;;;;;;;;;;;16.64;100.00;95700.63;1040727;28;20366;-74
2021/07/04 02:34:03;;;;;;;;;;;;;;;16.64;100.00;95692.53;1044667;28;19945;-73
2021/07/04 02:34:34;;;;;;;;;;;;;;;16.64;100.00;95696.03;1044606;28;19908;-75
2021/07/04 02:35:04;;;;;;;;;;;;;;;16.62;100.00;95700.94;1040390;28;19909;-75
2021/07/04 02:35:36;;;;;;;;;;;;;;;16.62;100.00;95694.75;1044674;28;19928;-74
2021/07/04 02:36:06;;;;;;;;;;;;;;;16.63;100.00;95697.16;1040389;28;19917;-75
2021/07/04 02:36:36;;;;;;;;;;;;;;;16.60;100.00;95692.38;1040684;28;19925;-74
2021/07/04 02:37:07;;;;;;;;;;;;;;;16.60;100.00;95697.75;1044585;28;19942;-74